NY Terminal Aviation Weather Discussion (AFD) - Prepared: 351 AM EDT TUE JUL 29 2014
HIGH PRESSURE IN CONTROL FOR TODAY AND WEDNESDAY.

VFR. LIGHT WINDS TODAY WITH AFTERNOON SEA BREEZES PROBABLE FOR AT 
LEAST KJFK/KISP/KBDR/KGON.

5 Day General Aviation Outlook:

.OUTLOOK FOR 06Z WEDNESDAY THROUGH SATURDAY...
.TUESDAY NIGHT-WEDNESDAY...VFR.
.THURSDAY-FRIDAY...ISOLATED SHOWERS/TSTMS POSSIBLE IN THE 
AFTERNOON/EARLY EVENING...MAINLY WEST OF A LINE FROM KBDR TO KFRG. 
VFR OUTSIDE OF ANY SHOWERS/TSTORMS.
.SATURDAY...VFR.


NY Metro Terminal Aviation Weather Summary: (Explanation of Color Coding)
NOTE: All Wind Directions are TRUE (add 13 degrees for magnetic directions). Tail and Crosswind Calculations do account for the magnetic deviation of runways.

Click on the Airport Below for Specific Information at that Terminal

TAF Overview JFK TAF LGA TAF EWR TAF TEB TAF HPN TAF ISP TAF

Jump to AirSpace Impacts Section Condensed "lite" version of SPA page
**************************************************************************************
KJFK Terminal Weather: (Wind Directions Are True, Except Where Noted, ADD 13 degrees for Magnetic)

5MIN KJFK 290840Z 33013KT 10SM FEW040 19/12 A2978 140 
     62 700 340/13 RMK AO2
5MIN KJFK 290835Z 33012KT 10SM FEW040 19/12 A2978 150 
     62 700 350/12 RMK AO2
********************************************
****        MAGNETIC DIRECTIONS         ****
********************************************
KJFK 07/29/2014 08:53:47 GMT 330 12 KT
KJFK 07/29/2014 08:51:47 GMT 340 14 KT
KJFK 07/29/2014 08:49:47 GMT 330 13 KT
KJFK 07/29/2014 08:47:47 GMT 330 13 KT
KJFK 07/29/2014 08:45:47 GMT 330 14 KT
KJFK 07/29/2014 08:43:47 GMT 340 15 KT
KJFK 07/29/2014 08:41:47 GMT 340 14 KT
KJFK 07/29/2014 08:39:47 GMT 330 14 KT
KJFK 07/29/2014 08:37:47 GMT 340 12 KT
KJFK 07/29/2014 08:35:47 GMT 340 11 KT
SAUS70 KJFK 290800 RRK
METAR KJFK 290751Z 31013KT 10SM FEW040 19/12 A2976 RMK AO2 SLP078
     T01890122
FTNA35 KJFK 290839 RRB
KJFK 290830Z 2909/3012 31008KT P6SM FEW040
     FM291700 25008KT P6SM SCT070
     FM291900 19010KT P6SM BKN070
     FM300200 23007KT P6SM SCT070
     FM301000 33004KT P6SM SCT050
KJFK FCSTER COMMENTS: SEA BREEZE TIMING COULD BE OFF BY AN HOUR IN 
EITHER DIRECTION. 

jfk

JFK Hourly Forecast Temperature (C)

JFK Hourly TMPS
**************************************************************************************
KLGA Terminal Weather: (Wind Directions Are True, Except Where Noted, ADD 13 degrees for Magnetic)

5MIN KLGA 290840Z 32011KT 10SM CLR 19/13 A2977 160 67 
     700 330/11 RMK AO2
5MIN KLGA 290835Z 32011KT 10SM CLR 18/12 A2977 160 67 
     600 330/11 RMK AO2
********************************************
****        MAGNETIC DIRECTIONS         ****
********************************************
KLGA 07/29/2014 08:53:54 GMT 340 14 KT
KLGA 07/29/2014 08:51:54 GMT 340 11 KT
KLGA 07/29/2014 08:49:54 GMT 340 11 KT
KLGA 07/29/2014 08:47:54 GMT 350 11 KT
KLGA 07/29/2014 08:45:54 GMT 340 12 KT
KLGA 07/29/2014 08:43:54 GMT 340 13 KT
KLGA 07/29/2014 08:41:54 GMT 350 12 KT
KLGA 07/29/2014 08:39:54 GMT 340 13 KT
KLGA 07/29/2014 08:37:54 GMT 350 11 KT
KLGA 07/29/2014 08:35:54 GMT 350 11 KT
SAUS70 KLGA 290800
METAR KLGA 290751Z 33015G19KT 10SM CLR 19/13 A2975 RMK AO2 SLP075
     T01890128
FTUS80 KLGA 290833 AAB
KLGA 290830Z 2909/3006 31010KT P6SM FEW040
     FM291700 27007KT P6SM SCT070
     FM292000 21009KT P6SM BKN070
     FM300300 24006KT P6SM SCT070
KLGA FCSTER COMMENTS: AMENDMENTS POSSIBLE IF SEA BREEZE DOES NOT 
MAKE IT AS QUICKLY AS FORECAST.  

lga


**************************************************************************************

KEWR Terminal Weather: (Wind Directions Are True, Except Where Noted, ADD 13 degrees for Magnetic)

5MIN KEWR 290840Z 32009KT 10SM FEW040 SCT250 18/12 
     A2978 150 65 600 330/09 RMK AO2 $
5MIN KEWR 290835Z 31008KT 10SM FEW040 SCT250 18/12 
     A2978 150 67 600 320/08 RMK AO2 $
********************************************
****        MAGNETIC DIRECTIONS         ****
********************************************
KEWR 07/29/2014 08:53:41 GMT 330 11 KT
KEWR 07/29/2014 08:51:41 GMT 330 11 KT
KEWR 07/29/2014 08:49:41 GMT 340 10 KT
KEWR 07/29/2014 08:47:41 GMT 340 11 KT
KEWR 07/29/2014 08:45:41 GMT 340 11 KT
KEWR 07/29/2014 08:43:41 GMT 340 10 KT
KEWR 07/29/2014 08:41:41 GMT 340 09 KT
KEWR 07/29/2014 08:39:41 GMT 340 10 KT
KEWR 07/29/2014 08:37:41 GMT 340 09 KT
KEWR 07/29/2014 08:35:41 GMT 340 11 KT
SAUS70 KEWR 290800
METAR KEWR 290751Z 32009KT 10SM FEW040 SCT250 18/12 A2977 RMK AO2 SLP080
     T01830122 $
FTUS31 KEWR 290833 AAA
KEWR 290830Z 2909/3012 31010KT P6SM FEW040
     FM291700 27008KT P6SM SCT070
     FM292000 24009KT P6SM BKN070
     FM300800 33005KT P6SM SCT050
KEWR FCSTER COMMENTS: SEA BREEZE CURRENTLY NOT EXPECTED AT KEWR BUT 
AMENDMENTS MAY BE NECESSARY IF FORECAST CHANGES. 

ewr
Afternoon EWR Haze Potential Forecast: green
THE AFTERNOON KEWR HAZE POTENTIAL FORECAST IS GREEN...WHICH IMPLIES 
SLANT RANGE VISIBILITY 7SM OR GREATER OUTSIDE OF CLOUD.


******************************************************************************

KTEB Terminal Weather:
SAUS80 KTEB 290800
METAR KTEB 290751Z 32012G17KT 10SM CLR 19/12 A2975 RMK AO2 SLP074
     T01890117
FTUS80 KTEB 290833 AAB
KTEB 290830Z 2909/3006 32010KT P6SM FEW040
     FM291700 27007KT P6SM SCT070
     FM292000 24007KT P6SM BKN070
     FM300300 VRB03KT P6SM SCT050
KTEB FCSTER COMMENTS: NO UNSCHEDULED AMENDMENTS EXPECTED. 

teb

 


**************************************************************************************

KHPN Terminal Weather:
SAUS70 KHPN 290800 RRC
METAR KHPN 290756Z 31011KT 10SM CLR 17/12 A2975 RMK AO2 SLP068
     T01670122
FTUS41 KHPN 290833 AAA
KHPN 290830Z 2909/3006 30010KT P6SM FEW040
     FM291800 27006KT P6SM SCT070
     FM292100 25005KT P6SM BKN060
     FM300300 VRB03KT P6SM SCT050 AMD NOT SKED
KHPN FCSTER COMMENTS: NO UNSCHEDULED AMENDMENTS EXPECTED. 

HPN


******************************************************************************

KISP Terminal Weather:
SAUS70 KISP 290800 RRD
METAR KISP 290756Z AUTO 30006KT 10SM CLR 19/13 A2973 RMK AO2 SLP065
     T01890133
FTUS51 KISP 290833 AAA
KISP 290830Z 2909/3006 31009KT P6SM FEW040
     FM291700 26008KT P6SM SCT070
     FM291900 21009KT P6SM BKN070
     FM300300 VRB04KT P6SM SCT050
KISP FCSTER COMMENTS: SEA BREEZE TIMING MAY BE OFF BY AN HOUR IN 
EITHER DIRECTION.


ISP

 


ZNY SWAP Season Information

(ZNY SWAP STATEMENT) (Click for PDF File) (ZNY BRIEFING) (Click for PDF File)

*******************************************************
***        NY AIR ROUTE TRAFFIC CONTROL CENTER      ***
***                DAILY SWAP STATEMENT             ***
*******************************************************
NY AIR ROUTE TRAFFIC CONTROL CENTER
DAILY SWAP STATEMENT
MONDAY, JULY 28, 2014
SWAP IS POSSIBLE AFTER 16Z.
SCT SHRA AND ISOLD TS WITH MAX TOPS FL360 ACROSS ERN ZOB WILL 
CONTINUE ENEWD THRU THE AFTN. BRIEF ROUTE IMPACTS FM J64-J95 PSBL. 
N90 IMPACTS LIKELY AFT 1730Z...ESP WEST AND NORTH OF THE NY METRO. 
SHRA AND TS ENDG ACRS ZNY AS THEY MOVE INTO ZBW'S AIRSPACE BY ARND 
20Z...THOUGH N90 EAST GATE IMPACTS WILL CONTINUE.
ADDT'L INFO:
AZEZU-PAEPR-HANRI(L453-M201):  IMPACTS ALONG M201 NORTH OF PAEPR 
NEAR 40N. 
DITCH: NO IMPACTS.
EAST GATES: IMPACTS EXPECTED. 
TOMORROW MORNINGS SWAP OUTLOOK:  SWAP IS NOT EXPECTED.

$$
MMD

N90 AirSpace Impacts

N90 ZNY Gate TSTM Forecast    SWAP Day One Forecast

SWAP Day One Forecast    SWAP Day Two Outlook

National Collaborative Convective Forecast Product (CCFP) Forecasts (Mar-Oct)


Vertical Wind Profile
Untitled Document